createdAt,value
2023-03-15T00:01:38.731Z,57.61
2023-03-15T00:04:05.571Z,57.41
2023-03-15T00:06:32.574Z,58.59
2023-03-15T00:08:59.466Z,59.62
2023-03-15T00:11:28.686Z,59.05
2023-03-15T00:13:55.261Z,60.02
2023-03-15T00:16:21.876Z,59.85
2023-03-15T00:18:48.432Z,59.70
2023-03-15T00:21:15.517Z,60.26
2023-03-15T00:23:42.151Z,60.05
2023-03-15T00:26:08.708Z,61.05
2023-03-15T00:28:36.988Z,60.42
2023-03-15T00:31:05.497Z,62.27
2023-03-15T00:33:32.214Z,61.73
2023-03-15T00:35:59.054Z,62.12
2023-03-15T00:38:25.810Z,63.62
2023-03-15T00:40:52.343Z,63.66
2023-03-15T00:43:18.944Z,63.54
2023-03-15T00:45:46.876Z,63.46
2023-03-15T00:48:13.418Z,64.23
2023-03-15T00:50:39.971Z,64.41
2023-03-15T00:53:06.614Z,64.23
2023-03-15T00:55:33.172Z,64.63
2023-03-15T00:57:59.723Z,64.21
2023-03-15T01:00:26.497Z,64.44
2023-03-15T01:02:54.815Z,64.36
2023-03-15T01:05:21.878Z,64.65
2023-03-15T01:07:49.120Z,64.54
2023-03-15T01:10:16.549Z,64.46
2023-03-15T01:12:43.764Z,64.71
2023-03-15T01:15:13.888Z,64.31
2023-03-15T01:17:41.253Z,64.45
2023-03-15T01:20:12.439Z,64.49
2023-03-15T01:22:38.992Z,64.79
2023-03-15T01:25:06.601Z,64.57
2023-03-15T01:27:33.159Z,64.18
2023-03-15T01:29:59.703Z,64.16
2023-03-15T01:32:27.140Z,64.35
2023-03-15T01:34:53.698Z,64.39
2023-03-15T01:37:21.658Z,64.25
2023-03-15T01:39:48.977Z,64.42
2023-03-15T01:42:15.516Z,64.21
2023-03-15T01:44:51.155Z,64.39
2023-03-15T01:47:19.678Z,64.72
2023-03-15T01:49:49.137Z,64.86
2023-03-15T01:52:19.564Z,64.63
2023-03-15T01:54:50.711Z,64.72
2023-03-15T01:57:20.842Z,64.48
2023-03-15T01:59:52.557Z,64.21
2023-03-15T02:02:21.230Z,64.00
2023-03-15T02:04:51.241Z,64.16
2023-03-15T02:07:20.904Z,64.60
2023-03-15T02:09:54.248Z,64.71
2023-03-15T02:12:20.771Z,64.88
2023-03-15T02:14:49.919Z,64.93
2023-03-15T02:17:18.694Z,64.89
2023-03-15T02:19:54.109Z,64.58
2023-03-15T02:22:32.789Z,64.50
2023-03-15T02:25:06.088Z,64.45
2023-03-15T02:27:35.454Z,64.68
2023-03-15T02:30:03.576Z,64.73
2023-03-15T02:32:31.217Z,64.50
2023-03-15T02:34:57.884Z,64.28
2023-03-15T02:37:24.449Z,64.07
2023-03-15T02:39:51.387Z,64.06
2023-03-15T02:42:18.038Z,64.58
2023-03-15T02:44:49.254Z,64.60
2023-03-15T02:47:20.205Z,64.72
2023-03-15T02:49:51.320Z,64.82
2023-03-15T02:52:18.005Z,65.15
2023-03-15T02:54:44.570Z,64.89
2023-03-15T02:57:11.467Z,65.02
2023-03-15T02:59:38.023Z,65.12
2023-03-15T03:02:06.096Z,65.37
2023-03-15T03:04:32.843Z,65.56
2023-03-15T03:06:59.503Z,65.78
2023-03-15T03:09:26.582Z,65.71
2023-03-15T03:11:53.136Z,65.92
2023-03-15T03:14:19.693Z,66.05
2023-03-15T03:16:46.633Z,66.17
2023-03-15T03:19:14.576Z,65.99
2023-03-15T03:21:41.497Z,65.40
2023-03-15T03:24:08.169Z,65.55
2023-03-15T03:26:34.875Z,66.54
2023-03-15T03:29:01.429Z,67.08
2023-03-15T03:31:28.368Z,66.76
2023-03-15T03:33:55.748Z,66.31
2023-03-15T03:36:23.768Z,65.78
2023-03-15T03:38:50.433Z,65.71
2023-03-15T03:41:17.024Z,65.74
2023-03-15T03:43:43.781Z,66.11
2023-03-15T03:46:10.438Z,65.83
2023-03-15T03:48:37.126Z,66.14
2023-03-15T03:51:04.388Z,65.79
2023-03-15T03:53:32.336Z,65.82
2023-03-15T03:55:58.876Z,65.31
2023-03-15T03:58:25.467Z,65.14
2023-03-15T04:00:52.424Z,65.11
2023-03-15T04:03:18.975Z,64.89
2023-03-15T04:05:45.563Z,64.69
2023-03-15T04:08:12.116Z,64.53
2023-03-15T04:10:40.014Z,65.06
2023-03-15T04:13:06.584Z,64.91
2023-03-15T04:15:33.122Z,64.65
2023-03-15T04:18:00.554Z,65.03
2023-03-15T04:20:27.535Z,64.98
2023-03-15T04:22:54.395Z,65.34
2023-03-15T04:25:22.176Z,65.29
2023-03-15T04:27:50.054Z,65.07
2023-03-15T04:30:17.370Z,65.38
2023-03-15T04:32:43.916Z,65.19
2023-03-15T04:35:10.468Z,65.21
2023-03-15T04:37:36.996Z,65.04
2023-03-15T04:40:04.144Z,65.05
2023-03-15T04:42:30.694Z,65.03
2023-03-15T04:44:58.616Z,64.69
2023-03-15T04:47:25.266Z,64.22
2023-03-15T04:49:51.821Z,64.59
2023-03-15T04:52:18.373Z,64.73
2023-03-15T04:54:44.980Z,64.61
2023-03-15T04:57:11.514Z,64.81
2023-03-15T04:59:38.041Z,64.23
2023-03-15T05:02:06.374Z,64.49
2023-03-15T05:04:32.976Z,64.62
2023-03-15T05:06:59.597Z,64.11
2023-03-15T05:09:26.169Z,64.04
2023-03-15T05:11:52.747Z,64.28
2023-03-15T05:14:19.527Z,64.59
2023-03-15T05:16:46.065Z,64.85
2023-03-15T05:19:13.835Z,64.85
2023-03-15T05:21:40.820Z,64.49
2023-03-15T05:24:07.605Z,64.50
2023-03-15T05:26:34.173Z,64.67
2023-03-15T05:29:00.745Z,65.01
2023-03-15T05:31:27.356Z,64.83
2023-03-15T05:33:53.932Z,64.67
2023-03-15T05:36:21.887Z,64.37
2023-03-15T05:38:48.632Z,64.82
2023-03-15T05:41:15.363Z,64.81
2023-03-15T05:43:41.916Z,65.23
2023-03-15T05:46:08.476Z,65.35
2023-03-15T05:48:40.497Z,65.33
2023-03-15T05:51:07.363Z,65.42
2023-03-15T05:53:35.259Z,65.46
2023-03-15T05:56:01.810Z,65.66
2023-03-15T05:58:28.442Z,66.29
2023-03-15T06:00:54.980Z,65.86
2023-03-15T06:03:21.634Z,65.84
2023-03-15T06:05:48.342Z,65.75
2023-03-15T06:08:14.912Z,66.10
2023-03-15T06:10:43.406Z,65.73
2023-03-15T06:13:10.226Z,65.82
2023-03-15T06:15:36.785Z,66.32
2023-03-15T06:18:03.437Z,65.92
2023-03-15T06:20:30.026Z,65.67
2023-03-15T06:22:56.571Z,65.77
2023-03-15T06:25:23.318Z,66.00
2023-03-15T06:27:51.335Z,66.09
2023-03-15T06:30:18.453Z,65.82
2023-03-15T06:32:45.060Z,65.78
2023-03-15T06:35:11.908Z,65.42
2023-03-15T06:37:38.576Z,65.71
2023-03-15T06:40:06.195Z,66.34
2023-03-15T06:42:32.982Z,65.94
2023-03-15T06:45:00.990Z,65.47
2023-03-15T06:47:27.701Z,65.08
2023-03-15T06:49:54.921Z,65.11
2023-03-15T06:52:23.033Z,65.34
2023-03-15T06:54:49.690Z,65.32
2023-03-15T06:57:16.247Z,66.79
2023-03-15T06:59:42.811Z,66.59
2023-03-15T07:02:14.175Z,66.19
2023-03-15T07:04:41.006Z,66.10
2023-03-15T07:07:07.673Z,65.59
2023-03-15T07:09:34.309Z,65.71
2023-03-15T07:12:01.001Z,65.41
2023-03-15T07:14:27.582Z,64.96
2023-03-15T07:16:54.151Z,64.55
2023-03-15T07:19:22.154Z,64.95
2023-03-15T07:21:48.611Z,64.80
2023-03-15T07:24:15.270Z,64.38
2023-03-15T07:26:41.797Z,63.84
2023-03-15T07:29:08.627Z,63.65
2023-03-15T07:31:35.455Z,63.64
2023-03-15T07:34:02.217Z,63.11
2023-03-15T07:36:30.139Z,62.87
2023-03-15T07:38:56.767Z,62.69
2023-03-15T07:41:23.333Z,62.40
2023-03-15T07:43:50.062Z,62.00
2023-03-15T07:46:17.151Z,61.73
2023-03-15T07:48:43.707Z,62.08
2023-03-15T07:51:10.453Z,61.49
2023-03-15T07:53:38.498Z,60.41
2023-03-15T07:56:05.675Z,60.32
2023-03-15T07:58:32.294Z,59.47
2023-03-15T08:00:59.251Z,58.46
2023-03-15T08:03:25.997Z,57.99
2023-03-15T08:05:52.989Z,57.19
2023-03-15T08:08:20.083Z,56.58
2023-03-15T08:10:48.019Z,57.23
2023-03-15T08:13:14.660Z,57.32
2023-03-15T08:15:41.285Z,56.54
2023-03-15T08:18:07.897Z,55.30
2023-03-15T08:20:34.445Z,54.71
2023-03-15T08:23:01.164Z,54.05
2023-03-15T08:25:28.344Z,53.27
2023-03-15T08:27:56.578Z,54.40
2023-03-15T08:30:23.737Z,53.54
2023-03-15T08:32:51.306Z,52.33
2023-03-15T08:35:20.548Z,51.72
2023-03-15T08:37:47.402Z,50.46
2023-03-15T08:40:14.983Z,50.08
2023-03-15T08:42:41.619Z,52.82
2023-03-15T08:45:11.109Z,54.21
2023-03-15T08:47:38.260Z,53.72
2023-03-15T08:50:07.652Z,52.94
2023-03-15T08:52:34.282Z,51.45
2023-03-15T08:55:00.861Z,49.50
2023-03-15T08:57:27.452Z,48.79
2023-03-15T08:59:54.424Z,47.06
2023-03-15T09:02:23.020Z,47.20
2023-03-15T09:04:50.594Z,45.21
2023-03-15T09:07:17.963Z,46.58
2023-03-15T09:09:44.545Z,48.79
2023-03-15T09:12:11.483Z,49.29
2023-03-15T09:14:38.149Z,49.99
2023-03-15T09:17:05.041Z,50.79
2023-03-15T09:19:33.089Z,50.89
2023-03-15T09:22:10.951Z,50.13
2023-03-15T09:24:43.602Z,49.02
2023-03-15T09:27:10.697Z,47.26
2023-03-15T09:29:37.328Z,46.14
2023-03-15T09:32:04.185Z,45.05
2023-03-15T09:34:39.936Z,43.32
2023-03-15T09:37:10.005Z,43.24
2023-03-15T09:39:36.599Z,43.00
2023-03-15T09:42:07.984Z,44.24
2023-03-15T09:44:44.563Z,43.64
2023-03-15T09:47:31.722Z,46.42
2023-03-15T09:50:04.735Z,45.16
2023-03-15T09:52:40.922Z,44.88
2023-03-15T09:55:15.746Z,43.42
2023-03-15T09:57:48.401Z,42.97
2023-03-15T10:00:20.976Z,41.92
2023-03-15T10:02:55.981Z,42.88
2023-03-15T10:05:27.971Z,42.63
2023-03-15T10:07:55.869Z,41.76
2023-03-15T10:10:28.721Z,43.15
2023-03-15T10:13:03.387Z,41.58
2023-03-15T10:15:39.121Z,41.88
2023-03-15T10:18:23.266Z,41.31
2023-03-15T10:20:55.978Z,41.11
2023-03-15T10:23:39.729Z,39.72
2023-03-15T10:26:09.985Z,39.53
2023-03-15T10:28:37.334Z,41.85
2023-03-15T10:31:18.219Z,42.13
2023-03-15T10:33:54.585Z,42.94
2023-03-15T10:36:23.281Z,44.33
2023-03-15T10:38:51.475Z,43.50
2023-03-15T10:41:30.325Z,43.89
2023-03-15T10:44:00.558Z,43.32
2023-03-15T10:46:28.157Z,40.77
2023-03-15T10:48:58.706Z,39.32
2023-03-15T10:51:27.913Z,39.29
2023-03-15T10:54:00.169Z,39.93
2023-03-15T10:56:28.898Z,39.84
2023-03-15T10:59:11.510Z,38.58
2023-03-15T11:01:39.503Z,38.60
2023-03-15T11:04:19.252Z,38.67
2023-03-15T11:06:48.639Z,40.84
2023-03-15T11:09:18.775Z,39.46
2023-03-15T11:11:53.597Z,38.83
2023-03-15T11:14:20.729Z,38.61
2023-03-15T11:16:49.720Z,37.86
2023-03-15T11:19:18.402Z,39.00
2023-03-15T11:21:45.617Z,39.10
2023-03-15T11:24:23.499Z,37.54
2023-03-15T11:26:50.967Z,37.73
2023-03-15T11:29:22.686Z,37.53
2023-03-15T11:31:50.567Z,37.91
2023-03-15T11:34:25.219Z,36.67
2023-03-15T11:37:05.554Z,36.00
2023-03-15T11:39:41.092Z,35.07
2023-03-15T11:42:13.839Z,35.23
2023-03-15T11:44:45.810Z,35.43
2023-03-15T11:47:18.561Z,34.91
2023-03-15T11:49:50.547Z,36.27
2023-03-15T11:52:18.564Z,35.70
2023-03-15T11:54:47.196Z,34.54
2023-03-15T11:57:40.062Z,34.00
2023-03-15T12:00:25.844Z,34.21
2023-03-15T12:02:54.521Z,34.46
2023-03-15T12:05:52.630Z,34.40
2023-03-15T12:08:22.728Z,35.25
2023-03-15T12:10:51.622Z,34.21
2023-03-15T12:13:27.501Z,34.38
2023-03-15T12:15:55.254Z,34.95
2023-03-15T12:18:33.505Z,36.21
2023-03-15T12:21:13.148Z,35.61
2023-03-15T12:23:43.237Z,34.36
2023-03-15T12:26:23.214Z,35.52
2023-03-15T12:28:52.602Z,34.89
2023-03-15T12:31:20.110Z,34.77
2023-03-15T12:33:49.758Z,36.17
2023-03-15T12:36:33.539Z,35.46
2023-03-15T12:39:19.291Z,35.22
2023-03-15T12:41:48.576Z,36.11
2023-03-15T12:44:27.139Z,37.27
2023-03-15T12:46:58.199Z,37.98
2023-03-15T12:49:34.280Z,37.36
2023-03-15T12:52:03.924Z,36.85
2023-03-15T12:54:40.991Z,37.11
2023-03-15T12:57:12.030Z,37.61
2023-03-15T12:59:45.350Z,38.17
2023-03-15T13:02:41.629Z,38.52
2023-03-15T13:05:18.507Z,37.62
2023-03-15T13:07:54.495Z,38.06
2023-03-15T13:10:53.070Z,38.27
2023-03-15T13:13:31.414Z,37.75
2023-03-15T13:16:12.179Z,37.29
2023-03-15T13:18:47.047Z,36.17
2023-03-15T13:21:19.218Z,35.71
2023-03-15T13:23:50.805Z,35.50
2023-03-15T13:26:31.224Z,35.61
2023-03-15T13:29:01.980Z,34.69
2023-03-15T13:31:31.595Z,34.89
2023-03-15T13:34:11.336Z,35.72
2023-03-15T13:36:46.043Z,36.18
2023-03-15T13:39:19.264Z,36.08
2023-03-15T13:41:46.427Z,34.42
2023-03-15T13:44:19.087Z,34.10
2023-03-15T13:46:47.116Z,34.17
2023-03-15T13:49:13.802Z,33.84
2023-03-15T13:51:41.458Z,32.81
2023-03-15T13:54:14.681Z,32.16
2023-03-15T13:56:53.962Z,31.49
2023-03-15T13:59:23.428Z,32.28
2023-03-15T14:01:50.998Z,31.02
2023-03-15T14:04:18.694Z,31.01
2023-03-15T14:06:46.479Z,30.96
2023-03-15T14:09:19.229Z,31.14
2023-03-15T14:11:45.797Z,30.70
2023-03-15T14:14:25.871Z,31.13
2023-03-15T14:17:04.915Z,31.04
2023-03-15T14:19:34.720Z,30.66
2023-03-15T14:22:04.005Z,31.03
2023-03-15T14:24:35.354Z,29.78
2023-03-15T14:27:06.442Z,30.81
2023-03-15T14:29:36.408Z,30.80
2023-03-15T14:32:05.481Z,30.22
2023-03-15T14:34:36.255Z,31.36
2023-03-15T14:37:07.419Z,30.57
2023-03-15T14:39:39.717Z,30.01
2023-03-15T14:42:07.068Z,30.95
2023-03-15T14:44:45.747Z,31.51
2023-03-15T14:47:15.887Z,31.17
2023-03-15T14:49:42.820Z,31.12
2023-03-15T14:52:13.411Z,31.05
2023-03-15T14:54:46.775Z,31.41
2023-03-15T14:57:13.442Z,30.52
2023-03-15T14:59:41.490Z,31.73
2023-03-15T15:02:15.250Z,31.90
2023-03-15T15:04:41.885Z,31.40
2023-03-15T15:07:11.075Z,31.45
2023-03-15T15:09:40.011Z,31.20
2023-03-15T15:12:09.024Z,30.94
2023-03-15T15:14:35.884Z,30.78
2023-03-15T15:17:03.967Z,30.40
2023-03-15T15:19:30.773Z,30.21
2023-03-15T15:21:57.622Z,29.78
2023-03-15T15:24:26.532Z,29.74
2023-03-15T15:26:53.525Z,29.77
2023-03-15T15:29:20.103Z,30.30
2023-03-15T15:31:46.701Z,30.68
2023-03-15T15:34:14.738Z,31.72
2023-03-15T15:36:43.206Z,31.31
2023-03-15T15:39:20.534Z,31.64
2023-03-15T15:41:47.158Z,32.28
2023-03-15T15:44:16.737Z,33.23
2023-03-15T15:46:43.486Z,33.17
2023-03-15T15:49:10.077Z,32.63
2023-03-15T15:51:39.666Z,32.74
2023-03-15T15:54:06.519Z,33.07
2023-03-15T15:56:34.855Z,33.63
2023-03-15T15:59:03.426Z,32.89
2023-03-15T16:01:30.596Z,32.85
2023-03-15T16:03:57.212Z,32.39
2023-03-15T16:06:23.878Z,32.59
2023-03-15T16:08:53.922Z,33.23
2023-03-15T16:11:21.276Z,32.79
2023-03-15T16:13:50.670Z,32.87
2023-03-15T16:16:17.848Z,33.26
2023-03-15T16:18:44.799Z,33.43
2023-03-15T16:21:15.954Z,33.89
2023-03-15T16:23:43.522Z,33.96
2023-03-15T16:26:15.251Z,35.05
2023-03-15T16:28:43.760Z,35.03
2023-03-15T16:31:10.440Z,34.64
2023-03-15T16:33:37.164Z,34.89
2023-03-15T16:36:03.867Z,35.13
2023-03-15T16:38:31.531Z,35.04
2023-03-15T16:40:59.829Z,35.37
2023-03-15T16:43:27.929Z,35.47
2023-03-15T16:45:54.519Z,36.53
2023-03-15T16:48:21.103Z,37.19
2023-03-15T16:50:47.796Z,37.80
2023-03-15T16:53:14.474Z,38.29
2023-03-15T16:55:41.121Z,39.15
2023-03-15T16:58:16.492Z,39.62
2023-03-15T17:00:44.751Z,39.70
2023-03-15T17:03:11.447Z,40.29
2023-03-15T17:05:39.293Z,40.11
2023-03-15T17:08:06.187Z,40.78
2023-03-15T17:10:33.160Z,41.91
2023-03-15T17:13:11.037Z,41.80
2023-03-15T17:15:37.837Z,42.68
2023-03-15T17:18:15.493Z,42.80
2023-03-15T17:20:42.584Z,42.57
2023-03-15T17:23:09.419Z,42.52
2023-03-15T17:25:36.500Z,43.01
2023-03-15T17:28:03.186Z,42.93
2023-03-15T17:30:32.132Z,43.01
2023-03-15T17:32:59.340Z,43.54
2023-03-15T17:35:29.906Z,43.84
2023-03-15T17:37:56.907Z,44.69
2023-03-15T17:40:25.447Z,44.59
2023-03-15T17:42:53.907Z,44.52
2023-03-15T17:45:22.396Z,44.73
2023-03-15T17:47:49.406Z,44.53
2023-03-15T17:50:16.484Z,44.81
2023-03-15T17:52:46.066Z,44.93
2023-03-15T17:55:17.671Z,45.10
2023-03-15T17:57:53.990Z,44.95
2023-03-15T18:00:22.085Z,45.02
2023-03-15T18:02:55.686Z,45.59
2023-03-15T18:05:25.229Z,45.08
2023-03-15T18:08:00.748Z,45.93
2023-03-15T18:10:33.842Z,46.12
2023-03-15T18:13:00.477Z,46.59
2023-03-15T18:15:27.145Z,46.41
2023-03-15T18:17:53.738Z,45.99
2023-03-15T18:20:20.471Z,45.36
2023-03-15T18:22:46.995Z,45.35
2023-03-15T18:25:19.381Z,45.69
2023-03-15T18:27:46.753Z,45.80
2023-03-15T18:30:14.933Z,46.82
2023-03-15T18:32:41.787Z,46.62
2023-03-15T18:35:13.805Z,46.09
2023-03-15T18:37:40.504Z,45.95
2023-03-15T18:40:08.202Z,46.29
2023-03-15T18:42:36.225Z,46.08
2023-03-15T18:45:02.869Z,45.82
2023-03-15T18:47:29.470Z,45.94
2023-03-15T18:50:04.517Z,46.12
2023-03-15T18:52:36.643Z,46.18
2023-03-15T18:55:03.886Z,46.27
2023-03-15T18:57:30.500Z,45.99
2023-03-15T18:59:58.520Z,46.05
2023-03-15T19:02:26.656Z,46.26
2023-03-15T19:04:56.704Z,46.69
2023-03-15T19:07:23.611Z,46.71
2023-03-15T19:09:50.224Z,47.09
2023-03-15T19:12:16.849Z,46.61
2023-03-15T19:14:43.460Z,46.91
2023-03-15T19:17:11.646Z,47.49
2023-03-15T19:19:38.431Z,47.01
2023-03-15T19:22:05.052Z,46.97
2023-03-15T19:24:31.948Z,47.39
2023-03-15T19:26:58.893Z,47.45
2023-03-15T19:29:37.547Z,47.68
2023-03-15T19:32:04.520Z,48.02
2023-03-15T19:34:32.721Z,48.15
2023-03-15T19:37:19.378Z,48.39
2023-03-15T19:39:46.409Z,48.39
2023-03-15T19:42:13.237Z,48.50
2023-03-15T19:44:40.259Z,48.61
2023-03-15T19:47:14.810Z,48.73
2023-03-15T19:49:43.110Z,48.72
2023-03-15T19:52:09.656Z,48.60
2023-03-15T19:54:38.905Z,48.64
2023-03-15T19:57:05.676Z,48.57
2023-03-15T19:59:38.657Z,48.74
2023-03-15T20:05:35.994Z,48.78
2023-03-15T20:08:03.075Z,48.89
2023-03-15T20:10:29.675Z,48.97
2023-03-15T20:12:56.280Z,48.96
2023-03-15T20:15:22.924Z,48.89
2023-03-15T20:17:49.468Z,48.98
2023-03-15T20:20:16.320Z,48.85
2023-03-15T20:22:45.192Z,48.83
2023-03-15T20:25:12.876Z,49.02
2023-03-15T20:27:44.322Z,48.71
2023-03-15T20:30:13.289Z,48.82
2023-03-15T20:32:40.227Z,48.69
2023-03-15T20:35:07.266Z,48.55
2023-03-15T20:37:33.921Z,48.50
2023-03-15T20:40:02.102Z,48.55
2023-03-15T20:42:29.006Z,48.81
2023-03-15T20:44:56.860Z,48.73
2023-03-15T20:47:23.572Z,48.59
2023-03-15T20:49:50.148Z,48.73
2023-03-15T20:52:16.708Z,48.87
2023-03-15T20:54:43.336Z,48.55
2023-03-15T20:57:11.328Z,48.50
2023-03-15T20:59:38.213Z,48.93
2023-03-15T21:02:04.984Z,49.03
2023-03-15T21:04:31.590Z,48.69
2023-03-15T21:06:58.265Z,49.12
2023-03-15T21:09:28.574Z,49.03
2023-03-15T21:11:55.101Z,49.04
2023-03-15T21:14:23.132Z,49.44
2023-03-15T21:16:49.821Z,49.55
2023-03-15T21:19:16.438Z,49.28
2023-03-15T21:21:43.256Z,49.23
2023-03-15T21:24:10.294Z,49.44
2023-03-15T21:26:37.244Z,49.62
2023-03-15T21:29:03.879Z,50.07
2023-03-15T21:31:31.976Z,50.00
2023-03-15T21:33:58.561Z,50.21
2023-03-15T21:36:25.328Z,50.20
2023-03-15T21:38:51.948Z,50.30
2023-03-15T21:41:18.514Z,50.52
2023-03-15T21:43:48.593Z,50.60
2023-03-15T21:46:15.749Z,50.71
2023-03-15T21:48:46.592Z,50.70
2023-03-15T21:51:14.550Z,50.89
2023-03-15T21:53:41.456Z,50.70
2023-03-15T21:56:08.615Z,50.99
2023-03-15T21:58:35.193Z,50.90
2023-03-15T22:01:04.433Z,50.95
2023-03-15T22:03:32.432Z,51.18
2023-03-15T22:06:01.298Z,50.97
2023-03-15T22:08:28.117Z,50.95
2023-03-15T22:10:55.946Z,51.31
2023-03-15T22:13:22.910Z,51.03
2023-03-15T22:15:49.702Z,51.25
2023-03-15T22:18:16.369Z,50.94
2023-03-15T22:20:42.947Z,50.87
2023-03-15T22:23:10.926Z,50.53
2023-03-15T22:25:38.357Z,51.06
2023-03-15T22:28:05.229Z,51.22
2023-03-15T22:30:32.055Z,50.84
2023-03-15T22:32:58.978Z,51.19
2023-03-15T22:35:25.845Z,51.23
2023-03-15T22:37:52.429Z,51.26
2023-03-15T22:40:20.574Z,51.35
2023-03-15T22:42:47.153Z,51.43
2023-03-15T22:45:13.710Z,51.30
2023-03-15T22:47:40.421Z,51.29
2023-03-15T22:50:07.728Z,51.59
2023-03-15T22:52:34.316Z,51.78
2023-03-15T22:55:01.461Z,52.13
2023-03-15T22:57:29.465Z,51.93
2023-03-15T22:59:56.054Z,52.05
2023-03-15T23:02:22.667Z,52.42
2023-03-15T23:04:49.273Z,51.93
2023-03-15T23:07:15.884Z,51.99
2023-03-15T23:09:42.841Z,51.90
2023-03-15T23:12:10.148Z,51.90
2023-03-15T23:14:38.061Z,51.98
2023-03-15T23:17:04.715Z,51.70
2023-03-15T23:19:31.900Z,51.75
2023-03-15T23:21:59.143Z,51.57
2023-03-15T23:24:25.801Z,51.12
2023-03-15T23:26:52.659Z,51.43
2023-03-15T23:29:19.211Z,51.61
2023-03-15T23:31:47.193Z,51.36
2023-03-15T23:34:13.749Z,51.50
2023-03-15T23:36:40.313Z,51.53
2023-03-15T23:39:07.046Z,51.99
2023-03-15T23:41:33.797Z,51.84
2023-03-15T23:44:00.325Z,51.85
2023-03-15T23:46:26.977Z,52.00
2023-03-15T23:48:54.877Z,52.02
2023-03-15T23:51:21.533Z,52.19
2023-03-15T23:53:48.091Z,52.63
2023-03-15T23:56:14.578Z,52.92
2023-03-15T23:58:41.119Z,52.56
